sensor_id;sensor_type;location;lat;lon;timestamp;P1;durP1;ratioP1;P2;durP2;ratioP2
14342;SDS011;7255;53.596;9.960;2022-11-15T00:02:00;47.57;;;29.73;;
14342;SDS011;7255;53.596;9.960;2022-11-15T00:04:29;50.20;;;31.23;;
14342;SDS011;7255;53.596;9.960;2022-11-15T00:06:56;49.43;;;30.57;;
14342;SDS011;7255;53.596;9.960;2022-11-15T00:09:22;50.23;;;30.33;;
14342;SDS011;7255;53.596;9.960;2022-11-15T00:11:49;50.87;;;31.37;;
14342;SDS011;7255;53.596;9.960;2022-11-15T00:14:17;46.47;;;29.60;;
14342;SDS011;7255;53.596;9.960;2022-11-15T00:16:43;56.50;;;32.47;;
14342;SDS011;7255;53.596;9.960;2022-11-15T00:19:09;50.80;;;30.60;;
14342;SDS011;7255;53.596;9.960;2022-11-15T00:21:36;50.43;;;30.97;;
14342;SDS011;7255;53.596;9.960;2022-11-15T00:24:04;52.00;;;31.30;;
14342;SDS011;7255;53.596;9.960;2022-11-15T00:26:30;50.93;;;31.27;;
14342;SDS011;7255;53.596;9.960;2022-11-15T00:28:56;51.37;;;31.97;;
14342;SDS011;7255;53.596;9.960;2022-11-15T00:31:23;55.23;;;33.33;;
14342;SDS011;7255;53.596;9.960;2022-11-15T00:33:49;49.50;;;31.30;;
14342;SDS011;7255;53.596;9.960;2022-11-15T00:36:15;50.27;;;30.73;;
14342;SDS011;7255;53.596;9.960;2022-11-15T00:38:42;57.30;;;33.10;;
14342;SDS011;7255;53.596;9.960;2022-11-15T00:41:09;53.43;;;32.43;;
14342;SDS011;7255;53.596;9.960;2022-11-15T00:43:35;51.53;;;31.53;;
14342;SDS011;7255;53.596;9.960;2022-11-15T00:46:04;51.47;;;32.10;;
14342;SDS011;7255;53.596;9.960;2022-11-15T00:48:33;50.17;;;32.40;;
14342;SDS011;7255;53.596;9.960;2022-11-15T00:50:59;48.27;;;30.20;;
14342;SDS011;7255;53.596;9.960;2022-11-15T00:53:25;48.13;;;30.67;;
14342;SDS011;7255;53.596;9.960;2022-11-15T00:55:52;50.87;;;30.93;;
14342;SDS011;7255;53.596;9.960;2022-11-15T00:58:20;45.30;;;30.27;;
14342;SDS011;7255;53.596;9.960;2022-11-15T01:00:46;48.23;;;30.83;;
14342;SDS011;7255;53.596;9.960;2022-11-15T01:03:12;46.47;;;30.77;;
14342;SDS011;7255;53.596;9.960;2022-11-15T01:05:39;50.37;;;32.40;;
14342;SDS011;7255;53.596;9.960;2022-11-15T01:08:06;44.63;;;30.13;;
14342;SDS011;7255;53.596;9.960;2022-11-15T01:10:37;43.13;;;29.40;;
14342;SDS011;7255;53.596;9.960;2022-11-15T01:13:03;47.33;;;30.67;;
14342;SDS011;7255;53.596;9.960;2022-11-15T01:15:31;46.73;;;29.83;;
14342;SDS011;7255;53.596;9.960;2022-11-15T01:17:58;44.73;;;27.90;;
14342;SDS011;7255;53.596;9.960;2022-11-15T01:20:24;45.90;;;30.13;;
14342;SDS011;7255;53.596;9.960;2022-11-15T01:22:50;43.20;;;27.73;;
14342;SDS011;7255;53.596;9.960;2022-11-15T01:25:16;43.47;;;29.07;;
14342;SDS011;7255;53.596;9.960;2022-11-15T01:27:43;44.83;;;29.00;;
14342;SDS011;7255;53.596;9.960;2022-11-15T01:30:09;42.90;;;28.30;;
14342;SDS011;7255;53.596;9.960;2022-11-15T01:32:37;44.27;;;27.37;;
14342;SDS011;7255;53.596;9.960;2022-11-15T01:35:04;42.37;;;27.17;;
14342;SDS011;7255;53.596;9.960;2022-11-15T01:37:30;39.33;;;26.60;;
14342;SDS011;7255;53.596;9.960;2022-11-15T01:39:56;40.67;;;27.23;;
14342;SDS011;7255;53.596;9.960;2022-11-15T01:42:23;44.17;;;27.63;;
14342;SDS011;7255;53.596;9.960;2022-11-15T01:44:49;42.87;;;27.40;;
14342;SDS011;7255;53.596;9.960;2022-11-15T01:47:17;39.67;;;26.80;;
14342;SDS011;7255;53.596;9.960;2022-11-15T01:49:49;38.87;;;26.50;;
14342;SDS011;7255;53.596;9.960;2022-11-15T01:52:20;47.63;;;28.00;;
14342;SDS011;7255;53.596;9.960;2022-11-15T01:54:50;41.83;;;26.17;;
14342;SDS011;7255;53.596;9.960;2022-11-15T01:57:21;39.00;;;27.10;;
14342;SDS011;7255;53.596;9.960;2022-11-15T01:59:48;42.37;;;28.40;;
14342;SDS011;7255;53.596;9.960;2022-11-15T02:02:14;42.67;;;27.30;;
14342;SDS011;7255;53.596;9.960;2022-11-15T02:04:42;40.10;;;26.70;;
14342;SDS011;7255;53.596;9.960;2022-11-15T02:07:13;43.60;;;26.70;;
14342;SDS011;7255;53.596;9.960;2022-11-15T02:09:42;44.70;;;27.03;;
14342;SDS011;7255;53.596;9.960;2022-11-15T02:12:10;43.47;;;27.43;;
14342;SDS011;7255;53.596;9.960;2022-11-15T02:14:39;43.33;;;26.73;;
14342;SDS011;7255;53.596;9.960;2022-11-15T02:17:13;40.87;;;25.93;;
14342;SDS011;7255;53.596;9.960;2022-11-15T02:20:08;45.50;;;26.63;;
14342;SDS011;7255;53.596;9.960;2022-11-15T02:23:00;39.90;;;26.53;;
14342;SDS011;7255;53.596;9.960;2022-11-15T02:25:41;41.50;;;26.43;;
14342;SDS011;7255;53.596;9.960;2022-11-15T02:28:35;44.27;;;25.53;;
14342;SDS011;7255;53.596;9.960;2022-11-15T02:31:12;40.53;;;25.67;;
14342;SDS011;7255;53.596;9.960;2022-11-15T02:33:44;45.90;;;26.20;;
14342;SDS011;7255;53.596;9.960;2022-11-15T02:36:21;45.17;;;27.67;;
14342;SDS011;7255;53.596;9.960;2022-11-15T02:38:59;40.90;;;26.50;;
14342;SDS011;7255;53.596;9.960;2022-11-15T02:41:34;39.50;;;25.40;;
14342;SDS011;7255;53.596;9.960;2022-11-15T02:44:10;43.40;;;25.87;;
14342;SDS011;7255;53.596;9.960;2022-11-15T02:46:43;44.67;;;26.67;;
14342;SDS011;7255;53.596;9.960;2022-11-15T02:49:32;43.73;;;27.13;;
14342;SDS011;7255;53.596;9.960;2022-11-15T02:52:00;40.50;;;26.17;;
14342;SDS011;7255;53.596;9.960;2022-11-15T02:54:28;41.93;;;26.27;;
14342;SDS011;7255;53.596;9.960;2022-11-15T02:56:58;43.20;;;25.97;;
14342;SDS011;7255;53.596;9.960;2022-11-15T02:59:33;42.73;;;26.13;;
14342;SDS011;7255;53.596;9.960;2022-11-15T03:02:13;44.43;;;26.77;;
14342;SDS011;7255;53.596;9.960;2022-11-15T03:04:49;44.67;;;27.13;;
14342;SDS011;7255;53.596;9.960;2022-11-15T03:07:22;39.57;;;25.50;;
14342;SDS011;7255;53.596;9.960;2022-11-15T03:09:56;41.50;;;26.73;;
14342;SDS011;7255;53.596;9.960;2022-11-15T03:12:30;42.80;;;26.87;;
14342;SDS011;7255;53.596;9.960;2022-11-15T03:15:06;42.93;;;26.30;;
14342;SDS011;7255;53.596;9.960;2022-11-15T03:17:40;44.23;;;25.83;;
14342;SDS011;7255;53.596;9.960;2022-11-15T03:20:13;39.30;;;26.23;;
14342;SDS011;7255;53.596;9.960;2022-11-15T03:22:42;41.43;;;25.23;;
14342;SDS011;7255;53.596;9.960;2022-11-15T03:25:10;44.77;;;26.87;;
14342;SDS011;7255;53.596;9.960;2022-11-15T03:27:51;39.37;;;24.83;;
14342;SDS011;7255;53.596;9.960;2022-11-15T03:30:21;45.70;;;24.97;;
14342;SDS011;7255;53.596;9.960;2022-11-15T03:32:49;42.40;;;25.57;;
14342;SDS011;7255;53.596;9.960;2022-11-15T03:35:20;41.47;;;25.77;;
14342;SDS011;7255;53.596;9.960;2022-11-15T03:37:49;46.40;;;26.17;;
14342;SDS011;7255;53.596;9.960;2022-11-15T03:40:20;43.30;;;26.20;;
14342;SDS011;7255;53.596;9.960;2022-11-15T03:42:52;41.93;;;24.70;;
14342;SDS011;7255;53.596;9.960;2022-11-15T03:45:28;42.27;;;26.77;;
14342;SDS011;7255;53.596;9.960;2022-11-15T03:48:01;44.83;;;25.47;;
14342;SDS011;7255;53.596;9.960;2022-11-15T03:50:31;39.73;;;26.00;;
14342;SDS011;7255;53.596;9.960;2022-11-15T03:52:58;46.23;;;26.97;;
14342;SDS011;7255;53.596;9.960;2022-11-15T03:55:24;44.53;;;26.57;;
14342;SDS011;7255;53.596;9.960;2022-11-15T03:57:52;41.17;;;26.17;;
14342;SDS011;7255;53.596;9.960;2022-11-15T04:00:20;44.77;;;26.00;;
14342;SDS011;7255;53.596;9.960;2022-11-15T04:02:47;43.47;;;25.77;;
14342;SDS011;7255;53.596;9.960;2022-11-15T04:05:14;40.70;;;25.93;;
14342;SDS011;7255;53.596;9.960;2022-11-15T04:07:41;38.60;;;25.40;;
14342;SDS011;7255;53.596;9.960;2022-11-15T04:10:08;38.37;;;24.30;;
14342;SDS011;7255;53.596;9.960;2022-11-15T04:12:36;40.90;;;24.17;;
14342;SDS011;7255;53.596;9.960;2022-11-15T04:15:07;44.83;;;24.87;;
14342;SDS011;7255;53.596;9.960;2022-11-15T04:17:36;39.80;;;25.43;;
14342;SDS011;7255;53.596;9.960;2022-11-15T04:20:04;41.73;;;25.30;;
14342;SDS011;7255;53.596;9.960;2022-11-15T04:22:52;45.33;;;25.67;;
14342;SDS011;7255;53.596;9.960;2022-11-15T04:25:37;42.13;;;26.17;;
14342;SDS011;7255;53.596;9.960;2022-11-15T04:28:04;40.63;;;25.37;;
14342;SDS011;7255;53.596;9.960;2022-11-15T04:30:30;44.87;;;25.63;;
14342;SDS011;7255;53.596;9.960;2022-11-15T04:32:56;41.07;;;25.57;;
14342;SDS011;7255;53.596;9.960;2022-11-15T04:35:22;40.50;;;24.80;;
14342;SDS011;7255;53.596;9.960;2022-11-15T04:37:49;46.80;;;25.07;;
14342;SDS011;7255;53.596;9.960;2022-11-15T04:40:16;38.03;;;24.53;;
14342;SDS011;7255;53.596;9.960;2022-11-15T04:42:42;40.80;;;25.77;;
14342;SDS011;7255;53.596;9.960;2022-11-15T04:45:09;44.47;;;25.73;;
14342;SDS011;7255;53.596;9.960;2022-11-15T04:47:35;40.13;;;25.37;;
14342;SDS011;7255;53.596;9.960;2022-11-15T04:50:02;44.10;;;24.93;;
14342;SDS011;7255;53.596;9.960;2022-11-15T04:52:29;40.40;;;25.87;;
14342;SDS011;7255;53.596;9.960;2022-11-15T04:54:55;44.87;;;25.90;;
14342;SDS011;7255;53.596;9.960;2022-11-15T04:57:23;40.43;;;26.40;;
14342;SDS011;7255;53.596;9.960;2022-11-15T04:59:49;39.37;;;25.40;;
14342;SDS011;7255;53.596;9.960;2022-11-15T05:02:15;42.27;;;25.37;;
14342;SDS011;7255;53.596;9.960;2022-11-15T05:04:42;37.73;;;25.03;;
14342;SDS011;7255;53.596;9.960;2022-11-15T05:07:07;42.50;;;24.83;;
14342;SDS011;7255;53.596;9.960;2022-11-15T05:09:33;40.60;;;24.10;;
14342;SDS011;7255;53.596;9.960;2022-11-15T05:12:00;41.87;;;24.50;;
14342;SDS011;7255;53.596;9.960;2022-11-15T05:14:27;40.43;;;25.50;;
14342;SDS011;7255;53.596;9.960;2022-11-15T05:16:54;39.10;;;25.30;;
14342;SDS011;7255;53.596;9.960;2022-11-15T05:19:20;39.77;;;25.87;;
14342;SDS011;7255;53.596;9.960;2022-11-15T05:21:46;41.33;;;23.80;;
14342;SDS011;7255;53.596;9.960;2022-11-15T05:24:13;40.47;;;25.37;;
14342;SDS011;7255;53.596;9.960;2022-11-15T05:26:39;38.77;;;25.63;;
14342;SDS011;7255;53.596;9.960;2022-11-15T05:29:05;35.53;;;23.67;;
14342;SDS011;7255;53.596;9.960;2022-11-15T05:31:33;36.13;;;24.80;;
14342;SDS011;7255;53.596;9.960;2022-11-15T05:33:59;34.97;;;22.97;;
14342;SDS011;7255;53.596;9.960;2022-11-15T05:36:28;35.97;;;22.67;;
14342;SDS011;7255;53.596;9.960;2022-11-15T05:38:57;33.43;;;22.27;;
14342;SDS011;7255;53.596;9.960;2022-11-15T05:41:25;32.43;;;21.93;;
14342;SDS011;7255;53.596;9.960;2022-11-15T05:43:55;35.20;;;22.77;;
14342;SDS011;7255;53.596;9.960;2022-11-15T05:46:21;37.00;;;22.63;;
14342;SDS011;7255;53.596;9.960;2022-11-15T05:48:50;32.27;;;21.70;;
14342;SDS011;7255;53.596;9.960;2022-11-15T05:51:19;38.17;;;23.80;;
14342;SDS011;7255;53.596;9.960;2022-11-15T05:53:47;31.10;;;21.07;;
14342;SDS011;7255;53.596;9.960;2022-11-15T05:56:14;32.20;;;22.02;;
14342;SDS011;7255;53.596;9.960;2022-11-15T05:58:40;32.72;;;21.98;;
14342;SDS011;7255;53.596;9.960;2022-11-15T06:01:07;29.23;;;20.25;;
14342;SDS011;7255;53.596;9.960;2022-11-15T06:03:34;33.95;;;21.85;;
14342;SDS011;7255;53.596;9.960;2022-11-15T06:06:02;30.10;;;20.85;;
14342;SDS011;7255;53.596;9.960;2022-11-15T06:08:28;32.53;;;20.92;;
14342;SDS011;7255;53.596;9.960;2022-11-15T06:10:54;31.23;;;20.37;;
14342;SDS011;7255;53.596;9.960;2022-11-15T06:13:21;29.25;;;19.48;;
14342;SDS011;7255;53.596;9.960;2022-11-15T06:15:47;29.08;;;20.88;;
14342;SDS011;7255;53.596;9.960;2022-11-15T06:18:13;27.08;;;19.75;;
14342;SDS011;7255;53.596;9.960;2022-11-15T06:20:40;29.08;;;18.83;;
14342;SDS011;7255;53.596;9.960;2022-11-15T06:23:07;29.42;;;19.48;;
14342;SDS011;7255;53.596;9.960;2022-11-15T06:25:34;24.98;;;19.20;;
14342;SDS011;7255;53.596;9.960;2022-11-15T06:28:00;29.73;;;21.08;;
14342;SDS011;7255;53.596;9.960;2022-11-15T06:30:26;27.67;;;18.65;;
14342;SDS011;7255;53.596;9.960;2022-11-15T06:32:58;27.35;;;19.98;;
14342;SDS011;7255;53.596;9.960;2022-11-15T06:35:25;25.75;;;18.48;;
14342;SDS011;7255;53.596;9.960;2022-11-15T06:37:52;25.33;;;19.83;;
14342;SDS011;7255;53.596;9.960;2022-11-15T06:40:20;26.67;;;19.25;;
14342;SDS011;7255;53.596;9.960;2022-11-15T06:42:46;25.45;;;18.27;;
14342;SDS011;7255;53.596;9.960;2022-11-15T06:45:12;26.77;;;19.33;;
14342;SDS011;7255;53.596;9.960;2022-11-15T06:47:43;23.23;;;18.17;;
14342;SDS011;7255;53.596;9.960;2022-11-15T06:50:10;26.23;;;18.73;;
14342;SDS011;7255;53.596;9.960;2022-11-15T06:52:37;26.37;;;18.52;;
14342;SDS011;7255;53.596;9.960;2022-11-15T06:55:03;28.50;;;18.83;;
14342;SDS011;7255;53.596;9.960;2022-11-15T06:57:31;26.42;;;18.58;;
14342;SDS011;7255;53.596;9.960;2022-11-15T06:59:58;25.60;;;18.80;;
14342;SDS011;7255;53.596;9.960;2022-11-15T07:02:24;27.45;;;19.02;;
14342;SDS011;7255;53.596;9.960;2022-11-15T07:04:51;26.40;;;17.10;;
14342;SDS011;7255;53.596;9.960;2022-11-15T07:07:17;24.60;;;17.75;;
14342;SDS011;7255;53.596;9.960;2022-11-15T07:09:44;26.08;;;18.70;;
14342;SDS011;7255;53.596;9.960;2022-11-15T07:12:10;24.65;;;17.40;;
14342;SDS011;7255;53.596;9.960;2022-11-15T07:14:39;25.98;;;19.58;;
14342;SDS011;7255;53.596;9.960;2022-11-15T07:17:05;25.80;;;18.55;;
14342;SDS011;7255;53.596;9.960;2022-11-15T07:19:31;26.55;;;17.85;;
14342;SDS011;7255;53.596;9.960;2022-11-15T07:21:58;25.58;;;18.55;;
14342;SDS011;7255;53.596;9.960;2022-11-15T07:24:24;28.05;;;18.77;;
14342;SDS011;7255;53.596;9.960;2022-11-15T07:26:50;23.55;;;18.12;;
14342;SDS011;7255;53.596;9.960;2022-11-15T07:29:16;26.77;;;17.98;;
14342;SDS011;7255;53.596;9.960;2022-11-15T07:31:44;24.90;;;18.45;;
14342;SDS011;7255;53.596;9.960;2022-11-15T07:34:10;22.90;;;17.90;;
14342;SDS011;7255;53.596;9.960;2022-11-15T07:36:37;25.23;;;17.48;;
14342;SDS011;7255;53.596;9.960;2022-11-15T07:39:03;21.37;;;16.73;;
14342;SDS011;7255;53.596;9.960;2022-11-15T07:41:29;24.73;;;17.10;;
14342;SDS011;7255;53.596;9.960;2022-11-15T07:43:56;23.02;;;17.85;;
14342;SDS011;7255;53.596;9.960;2022-11-15T07:46:22;24.75;;;17.37;;
14342;SDS011;7255;53.596;9.960;2022-11-15T07:48:50;24.63;;;17.62;;
14342;SDS011;7255;53.596;9.960;2022-11-15T07:51:17;24.60;;;17.02;;
14342;SDS011;7255;53.596;9.960;2022-11-15T07:53:43;20.58;;;16.65;;
14342;SDS011;7255;53.596;9.960;2022-11-15T07:56:10;24.95;;;17.80;;
14342;SDS011;7255;53.596;9.960;2022-11-15T07:58:37;20.17;;;15.88;;
14342;SDS011;7255;53.596;9.960;2022-11-15T08:01:04;20.95;;;17.12;;
14342;SDS011;7255;53.596;9.960;2022-11-15T08:03:31;21.05;;;14.95;;
14342;SDS011;7255;53.596;9.960;2022-11-15T08:05:59;22.52;;;16.80;;
14342;SDS011;7255;53.596;9.960;2022-11-15T08:08:25;19.48;;;14.93;;
14342;SDS011;7255;53.596;9.960;2022-11-15T08:10:52;17.52;;;14.90;;
14342;SDS011;7255;53.596;9.960;2022-11-15T08:13:18;19.30;;;14.82;;
14342;SDS011;7255;53.596;9.960;2022-11-15T08:15:44;20.35;;;15.50;;
14342;SDS011;7255;53.596;9.960;2022-11-15T08:18:12;20.17;;;14.85;;
14342;SDS011;7255;53.596;9.960;2022-11-15T08:20:40;20.85;;;15.35;;
14342;SDS011;7255;53.596;9.960;2022-11-15T08:23:09;17.17;;;14.25;;
14342;SDS011;7255;53.596;9.960;2022-11-15T08:25:37;21.25;;;14.60;;
14342;SDS011;7255;53.596;9.960;2022-11-15T08:28:04;18.60;;;14.70;;
14342;SDS011;7255;53.596;9.960;2022-11-15T08:30:34;19.62;;;15.07;;
14342;SDS011;7255;53.596;9.960;2022-11-15T08:33:02;23.02;;;15.45;;
14342;SDS011;7255;53.596;9.960;2022-11-15T08:35:29;20.27;;;14.87;;
14342;SDS011;7255;53.596;9.960;2022-11-15T08:37:56;20.27;;;14.70;;
14342;SDS011;7255;53.596;9.960;2022-11-15T08:40:23;17.77;;;14.52;;
14342;SDS011;7255;53.596;9.960;2022-11-15T08:42:51;18.05;;;14.30;;
14342;SDS011;7255;53.596;9.960;2022-11-15T08:45:18;18.12;;;14.25;;
14342;SDS011;7255;53.596;9.960;2022-11-15T08:47:44;19.08;;;15.07;;
14342;SDS011;7255;53.596;9.960;2022-11-15T08:50:10;17.60;;;13.57;;
14342;SDS011;7255;53.596;9.960;2022-11-15T08:52:37;19.58;;;14.15;;
14342;SDS011;7255;53.596;9.960;2022-11-15T08:55:04;21.60;;;13.90;;
14342;SDS011;7255;53.596;9.960;2022-11-15T08:57:32;20.70;;;13.85;;
14342;SDS011;7255;53.596;9.960;2022-11-15T08:59:58;20.08;;;14.63;;
14342;SDS011;7255;53.596;9.960;2022-11-15T09:02:24;15.55;;;13.38;;
14342;SDS011;7255;53.596;9.960;2022-11-15T09:04:51;18.75;;;13.15;;
14342;SDS011;7255;53.596;9.960;2022-11-15T09:07:17;15.77;;;13.70;;
14342;SDS011;7255;53.596;9.960;2022-11-15T09:09:43;17.40;;;15.05;;
14342;SDS011;7255;53.596;9.960;2022-11-15T09:12:10;16.23;;;13.07;;
14342;SDS011;7255;53.596;9.960;2022-11-15T09:14:38;17.67;;;13.50;;
14342;SDS011;7255;53.596;9.960;2022-11-15T09:17:06;18.10;;;13.88;;
14342;SDS011;7255;53.596;9.960;2022-11-15T09:19:33;21.17;;;13.38;;
14342;SDS011;7255;53.596;9.960;2022-11-15T09:21:59;22.80;;;13.95;;
14342;SDS011;7255;53.596;9.960;2022-11-15T09:24:25;14.65;;;12.25;;
14342;SDS011;7255;53.596;9.960;2022-11-15T09:26:52;15.63;;;12.60;;
14342;SDS011;7255;53.596;9.960;2022-11-15T09:29:18;15.95;;;13.75;;
14342;SDS011;7255;53.596;9.960;2022-11-15T09:31:46;17.45;;;14.15;;
14342;SDS011;7255;53.596;9.960;2022-11-15T09:34:12;16.45;;;13.60;;
14342;SDS011;7255;53.596;9.960;2022-11-15T09:36:39;19.55;;;13.85;;
14342;SDS011;7255;53.596;9.960;2022-11-15T09:39:05;14.90;;;11.82;;
14342;SDS011;7255;53.596;9.960;2022-11-15T09:41:38;17.52;;;13.02;;
14342;SDS011;7255;53.596;9.960;2022-11-15T09:44:19;16.08;;;13.07;;
14342;SDS011;7255;53.596;9.960;2022-11-15T09:47:00;15.20;;;12.20;;
14342;SDS011;7255;53.596;9.960;2022-11-15T09:49:35;16.75;;;12.07;;
14342;SDS011;7255;53.596;9.960;2022-11-15T09:52:01;16.20;;;11.68;;
14342;SDS011;7255;53.596;9.960;2022-11-15T09:54:29;16.65;;;12.30;;
14342;SDS011;7255;53.596;9.960;2022-11-15T09:57:04;15.35;;;13.13;;
14342;SDS011;7255;53.596;9.960;2022-11-15T09:59:39;14.27;;;11.77;;
14342;SDS011;7255;53.596;9.960;2022-11-15T10:02:31;17.42;;;13.00;;
14342;SDS011;7255;53.596;9.960;2022-11-15T10:05:07;17.17;;;12.93;;
14342;SDS011;7255;53.596;9.960;2022-11-15T10:07:37;13.50;;;12.10;;
14342;SDS011;7255;53.596;9.960;2022-11-15T10:10:13;17.58;;;12.73;;
14342;SDS011;7255;53.596;9.960;2022-11-15T10:12:44;15.07;;;12.75;;
14342;SDS011;7255;53.596;9.960;2022-11-15T10:15:14;16.17;;;12.48;;
14342;SDS011;7255;53.596;9.960;2022-11-15T10:17:54;15.73;;;12.80;;
14342;SDS011;7255;53.596;9.960;2022-11-15T10:20:27;17.45;;;12.50;;
14342;SDS011;7255;53.596;9.960;2022-11-15T10:22:58;14.82;;;11.93;;
14342;SDS011;7255;53.596;9.960;2022-11-15T10:25:27;15.98;;;12.27;;
14342;SDS011;7255;53.596;9.960;2022-11-15T10:27:56;17.75;;;12.23;;
14342;SDS011;7255;53.596;9.960;2022-11-15T10:30:29;13.85;;;11.77;;
14342;SDS011;7255;53.596;9.960;2022-11-15T10:33:00;13.02;;;11.63;;
14342;SDS011;7255;53.596;9.960;2022-11-15T10:35:37;14.00;;;11.82;;
14342;SDS011;7255;53.596;9.960;2022-11-15T10:38:07;14.18;;;10.95;;
14342;SDS011;7255;53.596;9.960;2022-11-15T10:40:35;13.70;;;10.70;;
14342;SDS011;7255;53.596;9.960;2022-11-15T10:43:06;12.27;;;10.73;;
14342;SDS011;7255;53.596;9.960;2022-11-15T10:45:39;19.10;;;11.98;;
14342;SDS011;7255;53.596;9.960;2022-11-15T10:48:24;14.25;;;11.63;;
14342;SDS011;7255;53.596;9.960;2022-11-15T10:50:51;13.55;;;11.57;;
14342;SDS011;7255;53.596;9.960;2022-11-15T10:53:29;14.35;;;11.18;;
14342;SDS011;7255;53.596;9.960;2022-11-15T10:56:00;13.77;;;11.75;;
14342;SDS011;7255;53.596;9.960;2022-11-15T10:58:31;14.93;;;11.32;;
14342;SDS011;7255;53.596;9.960;2022-11-15T11:01:10;16.65;;;11.38;;
14342;SDS011;7255;53.596;9.960;2022-11-15T11:03:41;15.40;;;11.63;;
14342;SDS011;7255;53.596;9.960;2022-11-15T11:06:10;12.85;;;10.85;;
14342;SDS011;7255;53.596;9.960;2022-11-15T11:08:38;14.70;;;10.88;;
14342;SDS011;7255;53.596;9.960;2022-11-15T11:11:04;12.57;;;10.45;;
14342;SDS011;7255;53.596;9.960;2022-11-15T11:13:32;14.38;;;11.15;;
14342;SDS011;7255;53.596;9.960;2022-11-15T11:16:05;14.55;;;11.02;;
14342;SDS011;7255;53.596;9.960;2022-11-15T11:18:48;12.27;;;10.30;;
14342;SDS011;7255;53.596;9.960;2022-11-15T11:21:22;13.48;;;9.82;;
14342;SDS011;7255;53.596;9.960;2022-11-15T11:23:53;14.20;;;11.07;;
14342;SDS011;7255;53.596;9.960;2022-11-15T11:26:29;13.52;;;10.07;;
14342;SDS011;7255;53.596;9.960;2022-11-15T11:29:05;13.45;;;10.70;;
14342;SDS011;7255;53.596;9.960;2022-11-15T11:31:42;12.70;;;9.95;;
14342;SDS011;7255;53.596;9.960;2022-11-15T11:34:15;14.13;;;10.27;;
14342;SDS011;7255;53.596;9.960;2022-11-15T11:37:00;12.85;;;9.95;;
14342;SDS011;7255;53.596;9.960;2022-11-15T11:39:35;12.85;;;10.25;;
14342;SDS011;7255;53.596;9.960;2022-11-15T11:42:10;10.77;;;9.43;;
14342;SDS011;7255;53.596;9.960;2022-11-15T11:44:47;11.00;;;9.98;;
14342;SDS011;7255;53.596;9.960;2022-11-15T11:47:20;11.65;;;10.45;;
14342;SDS011;7255;53.596;9.960;2022-11-15T11:49:50;12.32;;;10.07;;
14342;SDS011;7255;53.596;9.960;2022-11-15T11:52:20;11.15;;;9.50;;
14342;SDS011;7255;53.596;9.960;2022-11-15T11:54:52;12.37;;;9.75;;
14342;SDS011;7255;53.596;9.960;2022-11-15T11:57:27;13.18;;;10.43;;
14342;SDS011;7255;53.596;9.960;2022-11-15T12:00:02;14.10;;;9.43;;
14342;SDS011;7255;53.596;9.960;2022-11-15T12:02:31;11.73;;;9.98;;
14342;SDS011;7255;53.596;9.960;2022-11-15T12:05:07;10.38;;;9.27;;
14342;SDS011;7255;53.596;9.960;2022-11-15T12:07:37;9.27;;;8.35;;
14342;SDS011;7255;53.596;9.960;2022-11-15T12:10:11;14.38;;;8.07;;
14342;SDS011;7255;53.596;9.960;2022-11-15T12:12:44;11.00;;;9.73;;
14342;SDS011;7255;53.596;9.960;2022-11-15T12:15:17;11.18;;;8.55;;
14342;SDS011;7255;53.596;9.960;2022-11-15T12:17:46;12.88;;;9.57;;
14342;SDS011;7255;53.596;9.960;2022-11-15T12:20:16;12.00;;;8.23;;
14342;SDS011;7255;53.596;9.960;2022-11-15T12:22:46;12.20;;;8.85;;
14342;SDS011;7255;53.596;9.960;2022-11-15T12:25:18;9.88;;;8.50;;
14342;SDS011;7255;53.596;9.960;2022-11-15T12:27:49;11.93;;;8.60;;
14342;SDS011;7255;53.596;9.960;2022-11-15T12:30:20;10.82;;;7.95;;
14342;SDS011;7255;53.596;9.960;2022-11-15T12:32:49;12.13;;;8.85;;
14342;SDS011;7255;53.596;9.960;2022-11-15T12:35:24;10.00;;;8.25;;
14342;SDS011;7255;53.596;9.960;2022-11-15T12:37:53;10.30;;;8.50;;
14342;SDS011;7255;53.596;9.960;2022-11-15T12:40:30;13.80;;;9.48;;
14342;SDS011;7255;53.596;9.960;2022-11-15T12:43:03;11.75;;;8.43;;
14342;SDS011;7255;53.596;9.960;2022-11-15T12:45:51;10.02;;;8.52;;
14342;SDS011;7255;53.596;9.960;2022-11-15T12:48:45;10.52;;;8.13;;
14342;SDS011;7255;53.596;9.960;2022-11-15T12:51:18;12.63;;;9.35;;
14342;SDS011;7255;53.596;9.960;2022-11-15T12:53:46;13.60;;;8.85;;
14342;SDS011;7255;53.596;9.960;2022-11-15T12:56:22;10.02;;;7.95;;
14342;SDS011;7255;53.596;9.960;2022-11-15T12:58:54;9.50;;;8.15;;
14342;SDS011;7255;53.596;9.960;2022-11-15T13:01:52;9.52;;;8.00;;
14342;SDS011;7255;53.596;9.960;2022-11-15T13:04:25;10.25;;;8.43;;
14342;SDS011;7255;53.596;9.960;2022-11-15T13:06:55;8.80;;;7.87;;
14342;SDS011;7255;53.596;9.960;2022-11-15T13:20:54;9.18;;;7.65;;
14342;SDS011;7255;53.596;9.960;2022-11-15T13:23:22;12.77;;;9.23;;
14342;SDS011;7255;53.596;9.960;2022-11-15T13:25:54;9.20;;;8.07;;
14342;SDS011;7255;53.596;9.960;2022-11-15T13:28:31;12.63;;;8.38;;
14342;SDS011;7255;53.596;9.960;2022-11-15T13:31:00;14.60;;;9.20;;
14342;SDS011;7255;53.596;9.960;2022-11-15T13:33:30;10.68;;;8.38;;
14342;SDS011;7255;53.596;9.960;2022-11-15T13:35:59;9.25;;;8.30;;
14342;SDS011;7255;53.596;9.960;2022-11-15T13:38:31;10.88;;;8.10;;
14342;SDS011;7255;53.596;9.960;2022-11-15T13:41:16;13.45;;;8.30;;
14342;SDS011;7255;53.596;9.960;2022-11-15T13:43:45;10.45;;;8.80;;
14342;SDS011;7255;53.596;9.960;2022-11-15T13:46:12;11.15;;;7.72;;
14342;SDS011;7255;53.596;9.960;2022-11-15T13:48:42;10.75;;;8.10;;
14342;SDS011;7255;53.596;9.960;2022-11-15T13:51:12;10.48;;;7.97;;
14342;SDS011;7255;53.596;9.960;2022-11-15T13:53:45;8.77;;;7.87;;
14342;SDS011;7255;53.596;9.960;2022-11-15T13:56:14;11.25;;;7.90;;
14342;SDS011;7255;53.596;9.960;2022-11-15T13:58:41;9.93;;;8.40;;
14342;SDS011;7255;53.596;9.960;2022-11-15T14:01:11;11.30;;;9.05;;
14342;SDS011;7255;53.596;9.960;2022-11-15T14:03:46;11.77;;;8.07;;
14342;SDS011;7255;53.596;9.960;2022-11-15T14:06:16;9.80;;;8.80;;
14342;SDS011;7255;53.596;9.960;2022-11-15T14:08:58;11.23;;;8.88;;
14342;SDS011;7255;53.596;9.960;2022-11-15T14:11:27;11.75;;;9.48;;
14342;SDS011;7255;53.596;9.960;2022-11-15T14:13:59;10.30;;;7.25;;
14342;SDS011;7255;53.596;9.960;2022-11-15T14:16:32;11.35;;;8.55;;
14342;SDS011;7255;53.596;9.960;2022-11-15T14:19:00;10.50;;;8.73;;
14342;SDS011;7255;53.596;9.960;2022-11-15T14:21:26;8.90;;;7.97;;
14342;SDS011;7255;53.596;9.960;2022-11-15T14:23:52;8.95;;;8.05;;
14342;SDS011;7255;53.596;9.960;2022-11-15T14:26:27;10.20;;;8.60;;
14342;SDS011;7255;53.596;9.960;2022-11-15T14:28:55;11.18;;;8.00;;
14342;SDS011;7255;53.596;9.960;2022-11-15T14:31:22;9.25;;;8.20;;
14342;SDS011;7255;53.596;9.960;2022-11-15T14:33:48;10.27;;;8.23;;
14342;SDS011;7255;53.596;9.960;2022-11-15T14:36:15;9.50;;;7.82;;
14342;SDS011;7255;53.596;9.960;2022-11-15T14:38:44;9.30;;;7.72;;
14342;SDS011;7255;53.596;9.960;2022-11-15T14:41:16;9.80;;;8.65;;
14342;SDS011;7255;53.596;9.960;2022-11-15T14:43:46;11.43;;;8.48;;
14342;SDS011;7255;53.596;9.960;2022-11-15T14:46:13;10.10;;;8.57;;
14342;SDS011;7255;53.596;9.960;2022-11-15T14:48:39;10.70;;;8.43;;
14342;SDS011;7255;53.596;9.960;2022-11-15T14:51:09;9.50;;;8.50;;
14342;SDS011;7255;53.596;9.960;2022-11-15T14:53:38;10.77;;;8.20;;
14342;SDS011;7255;53.596;9.960;2022-11-15T14:56:04;9.10;;;7.80;;
14342;SDS011;7255;53.596;9.960;2022-11-15T14:58:30;10.30;;;8.25;;
14342;SDS011;7255;53.596;9.960;2022-11-15T15:00:58;12.15;;;8.30;;
14342;SDS011;7255;53.596;9.960;2022-11-15T15:03:24;10.93;;;8.60;;
14342;SDS011;7255;53.596;9.960;2022-11-15T15:05:50;11.38;;;8.95;;